KMCN/MCN METAR and TAF weather

Enter ICAO airport designator
Station Type Date Time Source
KMCN METAR 2021/06/24 04:53 UTC NOAA

KMCN 240453Z AUTO 10005KT 10SM OVC060 23/18 A3015 RMK AO2 SLP204 T02280178 403170161


Station Type Date Time Source
KMCN Decoded METAR 2021/06/24 04:53 UTC NOAA

MIDDLE GEORGIA REGIONAL AIRPORT , GA, United States (KMCN) 32-41N 83-39W 109M
Jun 24, 2021 - 12:53 AM EDT / 2021.06.24 0453 UTC
Wind: from the E (100 degrees) at 6 MPH (5 KT):0
Visibility: 10 mile(s):0
Sky conditions: overcast
Temperature: 73.0 F (22.8 C)
Dew Point: 64.0 F (17.8 C)
Relative Humidity: 73%
Pressure (altimeter): 30.15 in. Hg (1020 hPa)
ob: KMCN 240453Z AUTO 10005KT 10SM OVC060 23/18 A3015 RMK AO2 SLP204 T02280178 403170161
cycle: 5

Station Type Date Time Source
KMCN TAF 2021/06/23 18:22 UTC NOAA

TAF KMCN 231720Z 2318/2418 VRB04KT P6SM FEW045 SCT250
FM232300 06004KT P6SM FEW070 SCT250
FM241100 08006KT P6SM FEW008 BKN012
FM241400 08008KT P6SM SCT025

Example: see airport list